AirNav   Pilot Hours Calculator
 
 1080 users online  

MI90 Baldwin Lake Heliport
Union, Michigan, USA

GOING TO UNION?


FAA INFORMATION EFFECTIVE 05 DECEMBER 2019

Location

FAA Identifier: MI90
Lat/Long: 41-47-25.1770N 085-50-19.9880W
41-47.419617N 085-50.333133W
41.7903269,-85.8388856
(estimated)
Elevation: 850 ft. / 259 m (estimated)
Variation: 03W (1985)
From city: 1 mile E of UNION, MI
Time zone: UTC -5 (UTC -4 during Daylight Saving Time)
Zip code: 49130

Heliport Operations

Heliport use: Private use. Permission required prior to landing
Activation date: 02/1972
Control tower: no
ARTCC: CHICAGO CENTER
FSS: LANSING FLIGHT SERVICE STATION
OR LOCAL CALL 293-8916.
Attendance: CONTINUOUS
Wind indicator: yes
Segmented circle: yes

Heliport Communications

WX AWOS-3 at EKM (8 nm SW): 124.475 (574-264-9002)
WX AWOS-3 at HAI (15 nm NE): 119.975 (269-273-6705)
WX ASOS at GSH (16 nm S): 121.45 (574-642-4231)
WX AWOS-3 at IRS (18 nm E): 121.325 (269-659-8715)

Nearby radio navigation aids

VOR radial/distance  VOR name  Freq  Var
GSHr028/18.0GOSHEN VORTAC113.7000E
GIJr087/21.5GIPPER VORTAC115.4000E
ELXr149/24.7KEELER VOR/DME116.6000E
AZOr206/29.7KALAMAZOO VOR/DME109.0001W
OLKr338/(36.0)WEBSTER LAKE VOR110.4003W

 
NDB name  Hdg/Dist  Freq  Var  ID
STURGIS270/18.238204WIRS .. .-. ...

Heliport Services

Airframe service: NONE
Powerplant service: NONE

Runway Information

Helipad H1

Dimensions: 30 x 30 ft. / 9 x 9 m
CONC TOUCHDOWN WITHIN A 500 X 500 TURF LANDING AREA.
Surface: concrete
Latitude: 41-47.419617N
Longitude: 085-50.333133W
Elevation: 850.0 ft.
Traffic pattern: leftleft

Heliport Ownership and Management from official FAA records

Ownership: Privately-owned
Owner: REED M. POWERS
14163 US 12
UNION, MI 49130
Phone 616-641-7260
Manager: BEN R. GAMES
14163 US 12
UNION, MI 49130
Phone 312-448-2022

Heliport Operational Statistics

Aircraft based on the field: 1
Helicopters: 1
    

Additional Remarks

A52-H1 TREES LOCATED OVER 100' EITHER SIDE OF APPROACH 220DEG & 140DEG.
HELIPORT USED FOR ARNG TRNG.LETTER OF AGREEMENT GIVEN TO AVIATION OFFICER,MI.DEPT.OF MILITARY AFFAIRS.
FOR CD CTC CHICAGO ARTCC AT 630-906-8921.

Instrument Procedures

There are no published instrument procedures at MI90.

Some nearby airports with instrument procedures:

KEKM - Elkhart Municipal Airport (8 nm SW)
KHAI - Three Rivers Municipal Dr Haines Airport (15 nm NE)
KGSH - Goshen Municipal Airport (16 nm S)
3TR - Jerry Tyler Memorial Airport (17 nm W)
C91 - Dowagiac Municipal Airport (18 nm NW)
KIRS - Kirsch Municipal Airport (18 nm E)
 
Loc | Ops | Rwys | IFR | FBO | Links
Com | Nav | Svcs | Stats | Notes
Area around MI90 (Baldwin Lake Heliport)
 
Road maps at: MapQuest Bing Google
 
Aerial photo
No photo
 
Sectional chart

 
Airport distance calculator
Flying to Baldwin Lake Heliport? Find the distance to fly.

From to MI90

Sunrise and sunset
Times for 07-Dec-2019
 Local
(UTC-5)
 Zulu
(UTC)
Morning civil twilight07:2712:27
Sunrise07:5812:58
Sunset17:1222:12
Evening civil twilight17:4322:43

Current date and time
Zulu (UTC)  08-Dec-2019 02:21:55
Local (UTC-5)  07-Dec-2019 21:21:55
 
METAR
KEKM 
8nm SW 
072252Z 16006KT 10SM SCT095 04/M04 A3030 RMK AO2
KHAI 
15nm NE 
080155Z AUTO 17005KT 10SM BKN080 01/M04 A3027 RMK AO2 T00071040
KGSH 
16nm S 
080153Z AUTO 17008KT 10SM SCT080 01/M04 A3026 RMK AO2 SLP259 T00061039
KIRS 
18nm E 
080156Z AUTO 17005KT 10SM CLR 01/M05 A3026 RMK AO2 T00071047
TAF
KSBN 
22nm W 
071720Z 0718/0818 18010KT P6SM BKN100 FM081400 20015G24KT P6SM BKN025
NOTAMs
Click for the latest NOTAMs
NOTAMs are issued by the DoD/FAA and will open in a separate window not controlled by AirNav.

 

 
 

Would you like to see your business listed on this page?

 If your business provides an interesting product or service to pilots, flight crews, aircraft, or users of the Baldwin Lake Heliport, you should consider listing it here.  To start the listing process, click on the button below
 
Add a business
 

Other Pages about Baldwin Lake Heliport

Update a link
 
Copyright © AirNav, LLC. All rights reserved. Privacy Policy  Contact